JBU517 KBOS-KJFK
Flight info
| Callsign | JBU517 |
|---|---|
| Flight time | N/A |
| Altitude | 20000 |
| Route | SSOXS7 SSOXS BUZRD SEY PARCH4 |
| Aircraft | A320/M-SDE3FGHIRWY/LB1 |
Departure
| Time | 2026-05-07 00:27 |
|---|---|
| Airport | Boston Logan International Airport (KBOS) |
Arrival
| Time | N/A |
|---|---|
| Airport | John F. Kennedy International Airport (KJFK) |
| Time | Latitude | Longitude | Altitude | Speed | Heading |
|---|---|---|---|---|---|
| 2026-05-06 23:39 | 42.36575 | -71.01387 | 26 ft | 0 kts | 298° |
| 2026-05-07 00:10 | 42.36571 | -71.01378 | 31 ft | 4 kts | 298° |
| 2026-05-07 00:10 | 42.36561 | -71.01355 | 31 ft | 4 kts | 273° |
| 2026-05-07 00:11 | 42.36564 | -71.01340 | 31 ft | 3 kts | 238° |
| 2026-05-07 00:11 | 42.36570 | -71.01309 | 29 ft | 4 kts | 339° |
| 2026-05-07 00:11 | 42.36558 | -71.01309 | 31 ft | 4 kts | 25° |
| 2026-05-07 00:11 | 42.36545 | -71.01317 | 29 ft | 0 kts | 25° |
| 2026-05-07 00:16 | 42.36548 | -71.01315 | 30 ft | 2 kts | 25° |
| 2026-05-07 00:17 | 42.36579 | -71.01295 | 27 ft | 7 kts | 25° |
| 2026-05-07 00:17 | 42.36641 | -71.01267 | 28 ft | 11 kts | 15° |
| 2026-05-07 00:17 | 42.36711 | -71.01243 | 27 ft | 10 kts | 13° |
| 2026-05-07 00:17 | 42.36781 | -71.01259 | 27 ft | 9 kts | 321° |
| 2026-05-07 00:18 | 42.36810 | -71.01289 | 26 ft | 4 kts | 330° |
| 2026-05-07 00:18 | 42.36838 | -71.01273 | 27 ft | 6 kts | 34° |
| 2026-05-07 00:18 | 42.36878 | -71.01233 | 27 ft | 9 kts | 38° |
| 2026-05-07 00:18 | 42.36929 | -71.01170 | 28 ft | 11 kts | 43° |
| 2026-05-07 00:19 | 42.36998 | -71.01099 | 29 ft | 13 kts | 25° |
| 2026-05-07 00:19 | 42.37089 | -71.01044 | 27 ft | 15 kts | 25° |
| 2026-05-07 00:19 | 42.37181 | -71.00986 | 27 ft | 13 kts | 25° |
| 2026-05-07 00:19 | 42.37261 | -71.00936 | 26 ft | 10 kts | 25° |
| 2026-05-07 00:20 | 42.37333 | -71.00890 | 27 ft | 13 kts | 24° |
| 2026-05-07 00:20 | 42.37423 | -71.00848 | 28 ft | 15 kts | 18° |
| 2026-05-07 00:20 | 42.37528 | -71.00799 | 27 ft | 17 kts | 19° |
| 2026-05-07 00:20 | 42.37629 | -71.00749 | 30 ft | 13 kts | 20° |
| 2026-05-07 00:21 | 42.37709 | -71.00710 | 27 ft | 11 kts | 20° |
| 2026-05-07 00:21 | 42.37726 | -71.00701 | 28 ft | 0 kts | 20° |
| 2026-05-07 00:22 | 42.37730 | -71.00700 | 28 ft | 2 kts | 20° |
| 2026-05-07 00:22 | 42.37755 | -71.00687 | 26 ft | 6 kts | 20° |
| 2026-05-07 00:22 | 42.37758 | -71.00686 | 26 ft | 0 kts | 20° |
| 2026-05-07 00:23 | 42.37759 | -71.00685 | 26 ft | 1 kts | 20° |
| 2026-05-07 00:23 | 42.37778 | -71.00676 | 27 ft | 5 kts | 20° |
| 2026-05-07 00:23 | 42.37821 | -71.00654 | 27 ft | 8 kts | 21° |
| 2026-05-07 00:23 | 42.37840 | -71.00605 | 26 ft | 6 kts | 100° |
| 2026-05-07 00:24 | 42.37835 | -71.00582 | 26 ft | 0 kts | 109° |
| 2026-05-07 00:25 | 42.37832 | -71.00568 | 28 ft | 3 kts | 109° |
| 2026-05-07 00:26 | 42.37823 | -71.00532 | 27 ft | 5 kts | 109° |
| 2026-05-07 00:26 | 42.37802 | -71.00482 | 28 ft | 6 kts | 145° |
| 2026-05-07 00:26 | 42.37760 | -71.00493 | 27 ft | 8 kts | 189° |
| 2026-05-07 00:26 | 42.37621 | -71.00554 | 28 ft | 50 kts | 199° |
| 2026-05-07 00:27 | 42.37057 | -71.00832 | 26 ft | 119 kts | 200° |
| 2026-05-07 00:27 | 42.36176 | -71.01283 | 391 ft | 142 kts | 201° |
| 2026-05-07 00:27 | 42.35239 | -71.01707 | 1226 ft | 143 kts | 192° |
| 2026-05-07 00:27 | 42.34203 | -71.01577 | 1823 ft | 167 kts | 167° |
| 2026-05-07 00:28 | 42.33204 | -71.00478 | 2254 ft | 206 kts | 137° |
| 2026-05-07 00:28 | 42.32262 | -70.98871 | 2668 ft | 231 kts | 136° |
| 2026-05-07 00:28 | 42.31416 | -70.96936 | 3446 ft | 249 kts | 112° |
| 2026-05-07 00:28 | 42.31263 | -70.94557 | 4162 ft | 274 kts | 82° |
| 2026-05-07 00:29 | 42.31651 | -70.91922 | 4767 ft | 297 kts | 78° |
| 2026-05-07 00:29 | 42.32071 | -70.89148 | 4958 ft | 302 kts | 79° |
| 2026-05-07 00:30 | 42.32929 | -70.80534 | 7469 ft | 311 kts | 99° |
| 2026-05-07 00:30 | 42.32475 | -70.77678 | 8456 ft | 312 kts | 114° |
| 2026-05-07 00:30 | 42.31603 | -70.74993 | 9443 ft | 314 kts | 121° |
| 2026-05-07 00:30 | 42.30584 | -70.72362 | 10274 ft | 320 kts | 129° |
| 2026-05-07 00:31 | 42.29175 | -70.69940 | 10647 ft | 336 kts | 142° |
| 2026-05-07 00:31 | 42.27321 | -70.67920 | 10962 ft | 350 kts | 155° |
| 2026-05-07 00:31 | 42.25156 | -70.66496 | 11590 ft | 351 kts | 167° |
| 2026-05-07 00:31 | 42.22836 | -70.65438 | 12441 ft | 354 kts | 169° |
| 2026-05-07 00:32 | 42.20500 | -70.64367 | 13313 ft | 357 kts | 169° |
| 2026-05-07 00:32 | 42.18138 | -70.63275 | 14102 ft | 360 kts | 169° |
| 2026-05-07 00:32 | 42.15726 | -70.62457 | 14818 ft | 355 kts | 179° |
| 2026-05-07 00:32 | 42.13291 | -70.62268 | 15561 ft | 348 kts | 189° |
| 2026-05-07 00:33 | 42.10913 | -70.62707 | 16306 ft | 343 kts | 199° |
| 2026-05-07 00:33 | 42.08633 | -70.63646 | 17070 ft | 343 kts | 204° |
| 2026-05-07 00:33 | 42.06394 | -70.64645 | 17842 ft | 346 kts | 204° |
| 2026-05-07 00:33 | 42.04091 | -70.65664 | 18561 ft | 349 kts | 204° |
| 2026-05-07 00:34 | 42.01767 | -70.66690 | 19227 ft | 354 kts | 204° |
| 2026-05-07 00:34 | 41.99417 | -70.67725 | 19682 ft | 358 kts | 204° |
| 2026-05-07 00:34 | 41.97046 | -70.68768 | 19789 ft | 359 kts | 205° |
| 2026-05-07 00:34 | 41.94634 | -70.69834 | 19849 ft | 375 kts | 205° |
| 2026-05-07 00:35 | 41.92087 | -70.70965 | 19853 ft | 395 kts | 204° |
| 2026-05-07 00:35 | 41.89450 | -70.72126 | 19849 ft | 403 kts | 204° |
| 2026-05-07 00:35 | 41.86808 | -70.73278 | 19851 ft | 405 kts | 204° |
| 2026-05-07 00:35 | 41.84148 | -70.74490 | 19848 ft | 402 kts | 207° |
| 2026-05-07 00:36 | 41.81655 | -70.76134 | 19850 ft | 398 kts | 214° |
| 2026-05-07 00:36 | 41.79241 | -70.77947 | 19819 ft | 398 kts | 214° |
| 2026-05-07 00:36 | 41.78044 | -70.78847 | 19831 ft | 398 kts | 214° |